createdAt,value
2019-05-03T00:02:27.904Z,40.48
2019-05-03T00:05:22.061Z,41.35
2019-05-03T00:07:56.220Z,41.68
2019-05-03T00:10:29.038Z,37.45
2019-05-03T00:13:01.998Z,37.08
2019-05-03T00:15:42.901Z,40.20
2019-05-03T00:18:15.298Z,38.08
2019-05-03T00:20:47.710Z,41.83
2019-05-03T00:23:20.237Z,40.50
2019-05-03T00:25:52.790Z,39.18
2019-05-03T00:28:26.610Z,44.53
2019-05-03T00:30:59.285Z,39.38
2019-05-03T00:33:31.880Z,39.40
2019-05-03T00:36:22.178Z,40.78
2019-05-03T00:38:57.368Z,44.23
2019-05-03T00:41:29.769Z,39.15
2019-05-03T00:44:02.281Z,42.65
2019-05-03T00:46:35.673Z,40.15
2019-05-03T00:49:08.135Z,47.17
2019-05-03T00:51:42.347Z,42.62
2019-05-03T00:54:14.777Z,49.63
2019-05-03T00:56:47.192Z,40.38
2019-05-03T00:59:19.545Z,44.10
2019-05-03T01:01:52.469Z,38.92
2019-05-03T01:04:26.537Z,47.25
2019-05-03T01:06:59.071Z,44.60
2019-05-03T01:09:31.997Z,41.75
2019-05-03T01:12:04.470Z,50.03
2019-05-03T01:14:38.727Z,41.70
2019-05-03T01:17:11.728Z,46.08
2019-05-03T01:19:44.491Z,40.73
2019-05-03T01:22:16.854Z,39.35
2019-05-03T01:24:49.461Z,51.05
2019-05-03T01:27:22.130Z,42.10
2019-05-03T01:29:54.533Z,45.92
2019-05-03T01:32:27.290Z,39.65
2019-05-03T01:34:59.655Z,53.42
2019-05-03T01:37:32.195Z,38.63
2019-05-03T01:40:05.741Z,43.70
2019-05-03T01:42:38.161Z,41.98
2019-05-03T01:45:12.082Z,42.95
2019-05-03T01:48:07.591Z,42.30
2019-05-03T01:50:52.159Z,39.70
2019-05-03T01:53:26.915Z,41.48
2019-05-03T01:55:59.368Z,41.92
2019-05-03T01:58:32.391Z,38.10
2019-05-03T02:01:22.281Z,37.87
2019-05-03T02:04:03.001Z,40.25
2019-05-03T02:06:35.409Z,43.33
2019-05-03T02:09:09.349Z,44.13
2019-05-03T02:11:42.141Z,39.40
2019-05-03T02:14:15.529Z,44.83
2019-05-03T02:16:47.917Z,44.08
2019-05-03T02:19:22.019Z,35.00
2019-05-03T02:21:54.441Z,38.88
2019-05-03T02:24:27.083Z,38.30
2019-05-03T02:26:59.455Z,35.17
2019-05-03T02:29:32.533Z,37.35
2019-05-03T02:32:05.016Z,42.00
2019-05-03T02:34:37.588Z,39.88
2019-05-03T02:37:09.655Z,38.02
2019-05-03T02:39:42.671Z,39.80
2019-05-03T02:42:16.070Z,42.27
2019-05-03T02:44:48.501Z,41.00
2019-05-03T02:47:29.736Z,36.08
2019-05-03T02:50:06.332Z,40.03
2019-05-03T02:52:38.335Z,38.28
2019-05-03T02:55:15.653Z,38.58
2019-05-03T02:57:46.972Z,41.18
2019-05-03T03:00:25.503Z,40.10
2019-05-03T03:02:57.649Z,41.63
2019-05-03T03:05:29.901Z,39.83
2019-05-03T03:08:05.985Z,41.23
2019-05-03T03:10:37.860Z,36.73
2019-05-03T03:13:11.512Z,36.23
2019-05-03T03:15:45.871Z,36.53
2019-05-03T03:18:19.491Z,38.75
2019-05-03T03:20:55.348Z,43.35
2019-05-03T03:23:31.919Z,47.50
2019-05-03T03:26:06.250Z,40.12
2019-05-03T03:28:41.529Z,41.20
2019-05-03T03:32:09.051Z,41.85
2019-05-03T03:34:54.529Z,40.85
2019-05-03T03:37:19.771Z,47.13
2019-05-03T03:39:52.783Z,45.17
2019-05-03T03:42:25.268Z,48.65
2019-05-03T03:44:57.946Z,51.33
2019-05-03T03:47:31.474Z,42.55
2019-05-03T03:50:05.916Z,48.80
2019-05-03T03:52:41.898Z,52.53
2019-05-03T03:55:16.075Z,44.90
2019-05-03T03:57:48.578Z,50.98
2019-05-03T04:00:20.800Z,47.62
2019-05-03T04:02:55.265Z,48.90
2019-05-03T04:05:26.685Z,51.35
2019-05-03T04:08:00.266Z,45.35
2019-05-03T04:10:35.033Z,45.67
2019-05-03T04:13:08.553Z,52.70
2019-05-03T04:16:00.089Z,50.88
2019-05-03T04:18:42.594Z,46.35
2019-05-03T04:21:16.230Z,54.90
2019-05-03T04:23:48.612Z,55.67
2019-05-03T04:26:20.829Z,52.60
2019-05-03T04:28:56.041Z,42.98
2019-05-03T04:31:27.387Z,53.63
2019-05-03T04:33:59.755Z,45.05
2019-05-03T04:36:32.028Z,55.92
2019-05-03T04:39:05.338Z,46.75
2019-05-03T04:41:37.621Z,47.10
2019-05-03T04:44:09.810Z,50.73
2019-05-03T04:46:41.919Z,52.27
2019-05-03T04:49:15.147Z,47.53
2019-05-03T04:51:47.314Z,47.67
2019-05-03T04:54:38.207Z,49.18
2019-05-03T04:57:10.330Z,50.05
2019-05-03T04:59:44.993Z,50.43
2019-05-03T05:02:16.651Z,48.38
2019-05-03T05:04:48.741Z,49.40
2019-05-03T05:07:22.413Z,49.10
2019-05-03T05:09:56.122Z,46.48
2019-05-03T05:12:28.301Z,40.40
2019-05-03T05:15:00.392Z,45.58
2019-05-03T05:17:48.477Z,51.23
2019-05-03T05:20:42.005Z,47.15
2019-05-03T05:23:14.806Z,45.55
2019-05-03T05:25:54.943Z,42.27
2019-05-03T05:28:39.626Z,41.75
2019-05-03T05:31:11.749Z,37.88
2019-05-03T05:33:44.611Z,32.35
2019-05-03T05:36:16.811Z,35.60
2019-05-03T05:38:48.888Z,37.38
2019-05-03T05:41:21.528Z,28.60
2019-05-03T05:43:54.965Z,32.95
2019-05-03T05:46:31.566Z,37.50
2019-05-03T05:49:05.768Z,31.23
2019-05-03T05:51:39.909Z,31.85
2019-05-03T05:54:11.522Z,29.48
2019-05-03T05:56:54.857Z,36.88
2019-05-03T05:59:48.097Z,28.12
2019-05-03T06:02:20.715Z,30.32
2019-05-03T06:04:54.413Z,28.07
2019-05-03T06:07:51.323Z,32.55
2019-05-03T06:10:35.417Z,32.05
2019-05-03T06:13:15.227Z,33.67
2019-05-03T06:16:02.033Z,35.03
2019-05-03T06:18:45.171Z,33.13
2019-05-03T06:21:25.230Z,35.00
2019-05-03T06:24:01.470Z,26.55
2019-05-03T06:26:51.147Z,24.50
2019-05-03T06:29:24.777Z,26.00
2019-05-03T06:32:12.321Z,29.15
2019-05-03T06:34:45.506Z,32.50
2019-05-03T06:37:19.359Z,34.80
2019-05-03T06:39:51.479Z,26.87
2019-05-03T06:42:25.323Z,17.73
2019-05-03T06:44:59.180Z,17.02
2019-05-03T06:47:31.450Z,19.60
2019-05-03T06:50:05.385Z,20.77
2019-05-03T06:52:37.517Z,21.25
2019-05-03T06:55:10.875Z,18.90
2019-05-03T06:57:49.374Z,25.12
2019-05-03T07:00:36.419Z,36.73
2019-05-03T07:03:15.501Z,27.13
2019-05-03T07:06:05.697Z,24.40
2019-05-03T07:09:02.641Z,19.40
2019-05-03T07:11:36.251Z,19.75
2019-05-03T07:14:08.324Z,19.12
2019-05-03T07:16:40.711Z,15.53
2019-05-03T07:19:14.676Z,15.58
2019-05-03T07:21:46.600Z,13.35
2019-05-03T07:24:18.838Z,14.58
2019-05-03T07:26:51.809Z,12.80
2019-05-03T07:29:25.468Z,12.53
2019-05-03T07:31:57.721Z,15.88
2019-05-03T07:34:29.753Z,11.35
2019-05-03T07:37:01.836Z,15.35
2019-05-03T07:39:34.901Z,17.62
2019-05-03T07:42:07.177Z,20.97
2019-05-03T07:44:39.088Z,15.35
2019-05-03T07:47:11.448Z,21.35
2019-05-03T07:49:44.754Z,23.65
2019-05-03T07:52:16.763Z,27.42
2019-05-03T07:54:48.909Z,20.88
2019-05-03T07:57:35.702Z,21.77
2019-05-03T08:00:09.375Z,23.00
2019-05-03T08:02:41.490Z,20.50
2019-05-03T08:05:15.423Z,20.35
2019-05-03T08:07:47.705Z,21.97
2019-05-03T08:10:19.925Z,23.77
2019-05-03T08:12:51.959Z,21.60
2019-05-03T08:15:24.543Z,19.23
2019-05-03T08:17:56.741Z,18.85
2019-05-03T08:20:28.715Z,20.90
2019-05-03T08:23:01.018Z,24.02
2019-05-03T08:25:35.301Z,17.95
2019-05-03T08:28:08.239Z,17.02
2019-05-03T08:31:02.279Z,16.25
2019-05-03T08:33:51.175Z,16.17
2019-05-03T08:36:24.772Z,17.45
2019-05-03T08:38:56.999Z,14.00
2019-05-03T08:41:30.912Z,15.95
2019-05-03T08:44:05.123Z,16.82
2019-05-03T08:46:36.897Z,14.13
2019-05-03T08:49:09.037Z,16.27
2019-05-03T08:51:41.085Z,16.95
2019-05-03T08:54:15.023Z,20.02
2019-05-03T08:56:47.177Z,22.50
2019-05-03T08:59:28.748Z,15.60
2019-05-03T09:01:54.833Z,16.23
2019-05-03T09:04:36.266Z,19.42
2019-05-03T09:07:00.361Z,15.48
2019-05-03T09:09:46.118Z,15.28
2019-05-03T09:12:19.382Z,16.30
2019-05-03T09:14:51.487Z,17.30
2019-05-03T09:17:24.638Z,16.00
2019-05-03T09:19:56.811Z,15.70
2019-05-03T09:22:29.834Z,15.32
2019-05-03T09:25:01.876Z,17.12
2019-05-03T09:27:34.449Z,17.23
2019-05-03T09:30:07.008Z,13.72
2019-05-03T09:32:39.023Z,16.10
2019-05-03T09:35:27.206Z,15.23
2019-05-03T09:37:47.263Z,16.62
2019-05-03T09:40:20.300Z,11.30
2019-05-03T09:42:52.272Z,12.35
2019-05-03T09:45:24.644Z,10.82
2019-05-03T09:47:56.673Z,10.88
2019-05-03T09:50:28.777Z,11.88
2019-05-03T09:53:00.861Z,11.35
2019-05-03T09:55:39.114Z,8.68
2019-05-03T09:58:11.103Z,8.78
2019-05-03T10:00:44.642Z,7.12
2019-05-03T10:03:16.763Z,8.93
2019-05-03T10:05:48.618Z,8.15
2019-05-03T10:08:20.670Z,9.23
2019-05-03T10:11:11.011Z,7.70
2019-05-03T10:13:42.945Z,8.83
2019-05-03T10:16:15.807Z,9.43
2019-05-03T10:18:47.962Z,11.20
2019-05-03T10:21:21.730Z,13.68
2019-05-03T10:23:54.825Z,7.78
2019-05-03T10:26:27.590Z,8.20
2019-05-03T10:28:59.685Z,7.33
2019-05-03T10:31:41.659Z,7.90
2019-05-03T10:34:15.541Z,8.95
2019-05-03T10:36:47.622Z,9.65
2019-05-03T10:39:19.632Z,12.60
2019-05-03T10:41:51.702Z,7.37
2019-05-03T10:44:24.618Z,6.65
2019-05-03T10:46:56.903Z,7.60
2019-05-03T10:49:28.986Z,8.85
2019-05-03T10:52:05.626Z,7.53
2019-05-03T10:54:38.396Z,8.88
2019-05-03T10:57:15.979Z,7.30
2019-05-03T10:59:48.060Z,9.20
2019-05-03T11:02:45.350Z,7.95
2019-05-03T11:05:17.294Z,9.63
2019-05-03T11:07:49.434Z,10.30
2019-05-03T11:10:21.429Z,11.85
2019-05-03T11:12:54.822Z,8.83
2019-05-03T11:15:26.810Z,12.73
2019-05-03T11:17:58.916Z,10.82
2019-05-03T11:20:36.398Z,7.83
2019-05-03T11:23:09.087Z,7.92
2019-05-03T11:25:41.100Z,7.53
2019-05-03T11:28:20.991Z,9.80
2019-05-03T11:30:57.784Z,8.28
2019-05-03T11:33:36.366Z,8.38
2019-05-03T11:36:19.402Z,10.10
2019-05-03T11:38:51.514Z,9.85
2019-05-03T11:41:32.167Z,10.23
2019-05-03T11:44:18.219Z,7.85
2019-05-03T11:46:50.603Z,7.53
2019-05-03T11:49:22.601Z,9.48
2019-05-03T11:51:55.604Z,7.15
2019-05-03T11:54:27.973Z,5.90
2019-05-03T11:57:01.697Z,5.78
2019-05-03T11:59:34.505Z,8.20
2019-05-03T12:02:15.315Z,7.00
2019-05-03T12:04:47.271Z,6.47
2019-05-03T12:07:39.120Z,6.97
2019-05-03T12:10:16.846Z,9.28
2019-05-03T12:12:41.915Z,5.05
2019-05-03T12:15:15.097Z,7.62
2019-05-03T12:17:54.287Z,9.03
2019-05-03T12:20:23.595Z,8.58
2019-05-03T12:22:57.014Z,8.53
2019-05-03T12:25:30.143Z,9.18
2019-05-03T12:28:05.653Z,8.63
2019-05-03T12:30:36.272Z,8.95
2019-05-03T12:33:08.434Z,8.53
2019-05-03T12:35:40.537Z,9.00
2019-05-03T12:38:12.556Z,7.53
2019-05-03T12:40:45.535Z,8.35
2019-05-03T12:43:17.554Z,8.48
2019-05-03T12:45:49.941Z,6.40
2019-05-03T12:48:22.031Z,6.78
2019-05-03T12:50:54.346Z,5.80
2019-05-03T12:53:26.557Z,6.17
2019-05-03T12:55:58.620Z,7.30
2019-05-03T12:58:51.613Z,8.03
2019-05-03T13:01:45.117Z,6.92
2019-05-03T13:04:20.202Z,8.45
2019-05-03T13:07:10.154Z,6.20
2019-05-03T13:09:42.153Z,6.53
2019-05-03T13:12:16.124Z,7.17
2019-05-03T13:14:48.490Z,8.70
2019-05-03T13:17:36.074Z,5.25
2019-05-03T13:20:14.340Z,7.00
2019-05-03T13:22:46.359Z,5.10
2019-05-03T13:25:19.375Z,5.67
2019-05-03T13:27:51.525Z,7.42
2019-05-03T13:30:25.097Z,7.55
2019-05-03T13:32:57.228Z,5.00
2019-05-03T13:35:29.201Z,4.20
2019-05-03T13:38:01.261Z,5.03
2019-05-03T13:40:35.683Z,6.45
2019-05-03T13:43:07.096Z,5.50
2019-05-03T13:45:40.375Z,6.78
2019-05-03T13:48:12.436Z,6.22
2019-05-03T13:50:44.761Z,6.70
2019-05-03T13:53:17.022Z,7.72
2019-05-03T13:55:48.975Z,6.00
2019-05-03T13:58:20.998Z,5.33
2019-05-03T14:00:55.008Z,4.35
2019-05-03T14:03:27.247Z,3.35
2019-05-03T14:05:59.223Z,3.50
2019-05-03T14:08:31.100Z,7.28
2019-05-03T14:11:05.052Z,3.75
2019-05-03T14:13:37.767Z,3.55
2019-05-03T14:16:09.821Z,4.53
2019-05-03T14:18:42.098Z,4.37
2019-05-03T14:21:38.928Z,4.50
2019-05-03T14:24:11.359Z,6.40
2019-05-03T14:26:44.758Z,4.20
2019-05-03T14:29:16.862Z,4.87
2019-05-03T14:31:48.914Z,4.62
2019-05-03T14:34:20.825Z,7.33
2019-05-03T14:36:52.890Z,4.65
2019-05-03T14:39:25.366Z,5.42
2019-05-03T14:41:57.543Z,4.17
2019-05-03T14:44:29.871Z,6.85
2019-05-03T14:47:02.092Z,4.75
2019-05-03T14:49:34.646Z,5.12
2019-05-03T14:52:06.685Z,3.17
2019-05-03T14:54:40.495Z,5.35
2019-05-03T14:57:38.388Z,3.65
2019-05-03T15:00:29.141Z,8.88
2019-05-03T15:03:09.426Z,4.83
2019-05-03T15:05:41.424Z,4.00
2019-05-03T15:08:14.990Z,5.37
2019-05-03T15:10:47.251Z,7.95
2019-05-03T15:13:19.447Z,5.87
2019-05-03T15:15:54.527Z,7.20
2019-05-03T15:18:26.417Z,6.03
2019-05-03T15:20:58.442Z,5.90
2019-05-03T15:23:30.501Z,5.65
2019-05-03T15:26:05.065Z,9.85
2019-05-03T15:28:36.752Z,5.97
2019-05-03T15:31:08.773Z,6.95
2019-05-03T15:33:40.994Z,5.75
2019-05-03T15:36:13.066Z,7.20
2019-05-03T15:38:45.143Z,5.92
2019-05-03T15:41:17.041Z,6.53
2019-05-03T15:44:05.286Z,5.25
2019-05-03T15:46:47.320Z,6.25
2019-05-03T15:49:19.508Z,6.45
2019-05-03T15:51:53.848Z,4.65
2019-05-03T15:54:25.151Z,3.77
2019-05-03T15:56:57.179Z,5.28
2019-05-03T15:59:29.115Z,8.15
2019-05-03T16:02:01.148Z,8.90
2019-05-03T16:04:35.593Z,5.03
2019-05-03T16:07:07.351Z,5.92
2019-05-03T16:09:39.643Z,6.05
2019-05-03T16:12:12.084Z,4.78
2019-05-03T16:14:44.594Z,5.45
2019-05-03T16:17:16.673Z,3.85
2019-05-03T16:19:48.765Z,5.90
2019-05-03T16:22:21.858Z,7.10
2019-05-03T16:24:55.700Z,11.25
2019-05-03T16:27:47.279Z,8.88
2019-05-03T16:30:36.466Z,8.83
2019-05-03T16:33:07.701Z,6.65
2019-05-03T16:35:44.393Z,6.20
2019-05-03T16:38:19.217Z,6.58
2019-05-03T16:40:54.545Z,6.33
2019-05-03T16:43:27.534Z,10.72
2019-05-03T16:46:00.238Z,7.30
2019-05-03T16:48:35.191Z,6.85
2019-05-03T16:51:08.192Z,6.78
2019-05-03T16:53:40.600Z,6.10
2019-05-03T16:56:12.682Z,7.08
2019-05-03T16:58:44.845Z,6.62
2019-05-03T17:01:18.107Z,6.80
2019-05-03T17:03:54.970Z,6.25
2019-05-03T17:06:42.515Z,5.95
2019-05-03T17:09:24.859Z,7.35
2019-05-03T17:12:18.060Z,7.25
2019-05-03T17:14:50.070Z,6.62
2019-05-03T17:17:22.294Z,7.22
2019-05-03T17:19:55.119Z,5.70
2019-05-03T17:22:27.270Z,6.05
2019-05-03T17:24:59.258Z,4.95
2019-05-03T17:27:31.180Z,7.65
2019-05-03T17:30:04.591Z,9.93
2019-05-03T17:32:36.676Z,5.42
2019-05-03T17:35:08.831Z,6.17
2019-05-03T17:37:40.931Z,5.35
2019-05-03T17:40:30.234Z,5.25
2019-05-03T17:43:19.710Z,4.95
2019-05-03T17:45:55.006Z,4.87
2019-05-03T17:48:27.108Z,8.83
2019-05-03T17:50:59.059Z,4.85
2019-05-03T17:53:48.342Z,7.80
2019-05-03T17:56:39.299Z,8.23
2019-05-03T17:59:24.943Z,3.75
2019-05-03T18:02:16.225Z,4.87
2019-05-03T18:05:07.240Z,3.62
2019-05-03T18:07:54.269Z,4.80
2019-05-03T18:10:27.595Z,4.25
2019-05-03T18:12:59.589Z,4.12
2019-05-03T18:15:31.565Z,7.47
2019-05-03T18:18:05.318Z,5.67
2019-05-03T18:20:37.429Z,5.72
2019-05-03T18:23:09.685Z,5.20
2019-05-03T18:25:41.774Z,4.17
2019-05-03T18:28:14.869Z,5.10
2019-05-03T18:30:47.038Z,5.08
2019-05-03T18:33:19.122Z,5.37
2019-05-03T18:35:51.230Z,4.55
2019-05-03T18:38:25.306Z,5.30
2019-05-03T18:40:57.382Z,4.40
2019-05-03T18:43:36.537Z,4.37
2019-05-03T18:46:26.523Z,5.00
2019-05-03T18:48:59.753Z,4.87
2019-05-03T18:51:32.098Z,5.00
2019-05-03T18:54:07.102Z,5.35
2019-05-03T18:56:38.578Z,5.12
2019-05-03T18:59:10.607Z,5.00
2019-05-03T19:01:42.708Z,4.70
2019-05-03T19:04:34.136Z,6.28
2019-05-03T19:07:04.327Z,7.55
2019-05-03T19:09:38.889Z,5.95
2019-05-03T19:12:41.689Z,5.30
2019-05-03T19:15:14.491Z,5.28
2019-05-03T19:17:59.989Z,7.45
2019-05-03T19:20:31.937Z,5.05
2019-05-03T19:23:04.971Z,6.30
2019-05-03T19:25:46.147Z,5.55
2019-05-03T19:28:11.172Z,5.62
2019-05-03T19:30:44.896Z,6.87
2019-05-03T19:33:16.991Z,8.40
2019-05-03T19:35:48.950Z,7.28
2019-05-03T19:38:21.008Z,5.83
2019-05-03T19:40:54.750Z,5.90
2019-05-03T19:43:27.136Z,9.80
2019-05-03T19:45:59.317Z,6.67
2019-05-03T19:48:31.409Z,7.10
2019-05-03T19:51:05.600Z,7.35
2019-05-03T19:53:56.386Z,7.00
2019-05-03T19:56:28.488Z,8.33
2019-05-03T19:59:04.782Z,7.20
2019-05-03T20:01:49.470Z,6.30
2019-05-03T20:04:38.192Z,13.40
2019-05-03T20:07:37.260Z,8.75
2019-05-03T20:10:09.729Z,8.10
2019-05-03T20:12:41.783Z,12.37
2019-05-03T20:15:14.506Z,7.15
2019-05-03T20:17:56.597Z,6.97
2019-05-03T20:20:20.714Z,7.90
2019-05-03T20:22:54.496Z,8.88
2019-05-03T20:25:26.624Z,10.23
2019-05-03T20:27:58.559Z,6.97
2019-05-03T20:30:30.742Z,8.45
2019-05-03T20:33:02.874Z,6.35
2019-05-03T20:35:35.618Z,9.03
2019-05-03T20:38:07.534Z,6.58
2019-05-03T20:40:39.942Z,6.33
2019-05-03T20:43:21.780Z,8.73
2019-05-03T20:46:01.330Z,6.08
2019-05-03T20:48:34.353Z,7.30
2019-05-03T20:51:06.449Z,6.50
2019-05-03T20:53:38.482Z,8.10
2019-05-03T20:56:10.606Z,7.80
2019-05-03T20:58:44.582Z,6.95
2019-05-03T21:01:16.796Z,13.68
2019-05-03T21:03:49.017Z,7.30
2019-05-03T21:06:33.105Z,8.03
2019-05-03T21:08:56.473Z,8.40
2019-05-03T21:11:29.686Z,10.25
2019-05-03T21:14:01.732Z,7.90
2019-05-03T21:17:05.082Z,10.80
2019-05-03T21:19:48.980Z,9.85
2019-05-03T21:22:24.982Z,8.73
2019-05-03T21:25:14.354Z,12.37
2019-05-03T21:27:46.258Z,8.68
2019-05-03T21:30:18.363Z,9.60
2019-05-03T21:32:50.802Z,11.22
2019-05-03T21:35:22.967Z,9.90
2019-05-03T21:37:55.135Z,13.55
2019-05-03T21:40:27.235Z,9.08
2019-05-03T21:42:59.250Z,8.23
2019-05-03T21:45:38.357Z,8.88
2019-05-03T21:48:32.482Z,7.30
2019-05-03T21:51:04.653Z,6.40
2019-05-03T21:53:38.103Z,6.17
2019-05-03T21:56:10.456Z,7.33
2019-05-03T21:58:44.554Z,6.65
2019-05-03T22:01:16.475Z,10.48
2019-05-03T22:03:48.791Z,7.60
2019-05-03T22:06:21.024Z,5.70
2019-05-03T22:08:53.079Z,5.25
2019-05-03T22:11:25.301Z,5.53
2019-05-03T22:14:01.658Z,7.05
2019-05-03T22:16:55.387Z,4.92
2019-05-03T22:19:27.454Z,4.37
2019-05-03T22:22:28.878Z,4.97
2019-05-03T22:25:01.410Z,5.05
2019-05-03T22:27:38.898Z,4.42
2019-05-03T22:30:11.031Z,5.08
2019-05-03T22:32:44.554Z,5.08
2019-05-03T22:35:16.747Z,5.00
2019-05-03T22:37:48.688Z,8.25
2019-05-03T22:40:20.745Z,4.47
2019-05-03T22:42:52.833Z,4.80
2019-05-03T22:45:26.227Z,5.17
2019-05-03T22:47:58.375Z,4.85
2019-05-03T22:50:30.512Z,4.65
2019-05-03T22:53:02.663Z,4.10
2019-05-03T22:55:34.779Z,6.75
2019-05-03T22:58:06.848Z,5.80
2019-05-03T23:00:38.732Z,4.50
2019-05-03T23:03:10.856Z,6.25
2019-05-03T23:05:42.930Z,4.15
2019-05-03T23:08:15.056Z,7.70
2019-05-03T23:10:46.983Z,4.62
2019-05-03T23:13:18.947Z,4.47
2019-05-03T23:15:50.967Z,4.62
2019-05-03T23:18:24.652Z,5.08
2019-05-03T23:21:04.550Z,4.20
2019-05-03T23:23:49.100Z,5.10
2019-05-03T23:26:21.109Z,6.67
2019-05-03T23:28:54.990Z,5.83
2019-05-03T23:31:26.618Z,5.30
2019-05-03T23:33:58.672Z,5.65
2019-05-03T23:36:33.714Z,4.25
2019-05-03T23:39:05.864Z,4.72
2019-05-03T23:41:37.983Z,6.15
2019-05-03T23:44:10.226Z,4.42
2019-05-03T23:46:50.441Z,4.47
2019-05-03T23:49:22.430Z,4.60
2019-05-03T23:51:56.636Z,4.60
2019-05-03T23:54:29.015Z,6.33
2019-05-03T23:57:01.169Z,5.08
2019-05-03T23:59:35.291Z,4.95
